Time;durP1;ratioP1;P1;durP2;ratioP2;P2;SDS_P1;SDS_P2;PMS_P1;PMS_P2;Temp;Humidity;BMP_temperature;BMP_pressure;BME280_temperature;BME280_humidity;BME280_pressure;Samples;Min_cycle;Max_cycle;Signal;HPM_P1;HPM_P2
2024/01/31 00:00:33;;;;;;;20.23;12.25;;;5.20;71.20;;;;;;5013876;28;20434;-62
2024/01/31 00:03:00;;;;;;;20.95;12.18;;;5.10;71.10;;;;;;5012996;28;20083;-61
2024/01/31 00:05:25;;;;;;;17.40;11.38;;;5.10;71.10;;;;;;5010749;28;20045;-61
2024/01/31 00:07:51;;;;;;;17.08;11.18;;;5.10;71.20;;;;;;5013540;28;20029;-62
2024/01/31 00:10:17;;;;;;;19.15;11.98;;;5.10;71.30;;;;;;5015883;28;20108;-61
2024/01/31 00:12:43;;;;;;;20.50;11.75;;;5.00;71.40;;;;;;5017168;28;20029;-62
2024/01/31 00:15:08;;;;;;;18.08;11.95;;;5.00;71.50;;;;;;5010264;28;20557;-60
2024/01/31 00:17:34;;;;;;;22.17;11.90;;;5.00;71.60;;;;;;5029523;28;20057;-62
2024/01/31 00:20:00;;;;;;;17.38;11.10;;;5.00;71.70;;;;;;5015699;28;20087;-60
2024/01/31 00:22:25;;;;;;;19.73;11.45;;;5.00;71.80;;;;;;5019628;28;20099;-61
2024/01/31 00:24:51;;;;;;;18.83;11.80;;;5.00;71.90;;;;;;5010252;28;20052;-60
2024/01/31 00:27:16;;;;;;;15.73;10.98;;;5.00;71.90;;;;;;5010081;28;20172;-60
2024/01/31 00:29:42;;;;;;;19.52;11.60;;;5.00;72.00;;;;;;5014441;28;20100;-61
2024/01/31 00:32:09;;;;;;;20.35;11.93;;;5.00;72.00;;;;;;5016061;28;20033;-61
2024/01/31 00:34:35;;;;;;;20.20;11.65;;;5.00;72.00;;;;;;5019683;28;20057;-61
2024/01/31 00:37:00;;;;;;;18.75;11.25;;;5.00;72.00;;;;;;5013763;28;20064;-61
2024/01/31 00:39:31;;;;;;;19.77;11.93;;;5.00;72.00;;;;;;5015107;28;20029;-63
2024/01/31 00:41:57;;;;;;;19.02;11.98;;;5.00;72.00;;;;;;5013597;28;20559;-62
2024/01/31 00:44:23;;;;;;;17.90;11.48;;;5.00;72.00;;;;;;5013815;28;20068;-61
2024/01/31 00:46:50;;;;;;;18.55;10.77;;;5.00;71.90;;;;;;4937827;28;20018;-61
2024/01/31 00:49:16;;;;;;;22.60;12.45;;;5.00;71.90;;;;;;5010966;28;20507;-62
2024/01/31 00:51:44;;;;;;;18.70;11.77;;;5.00;71.90;;;;;;5014090;28;20121;-61
2024/01/31 00:54:12;;;;;;;16.92;10.98;;;5.00;72.00;;;;;;5011004;28;20076;-61
2024/01/31 00:56:38;;;;;;;17.75;11.02;;;5.00;72.10;;;;;;5018256;28;20026;-61
2024/01/31 00:59:03;;;;;;;17.35;11.00;;;5.00;72.00;;;;;;5016226;28;20071;-61
2024/01/31 01:01:29;;;;;;;18.58;10.82;;;5.00;72.00;;;;;;5014394;28;20598;-62
2024/01/31 01:03:55;;;;;;;19.77;10.88;;;5.00;71.90;;;;;;5014468;28;20486;-61
2024/01/31 01:06:20;;;;;;;19.77;11.05;;;5.00;72.00;;;;;;5015919;28;20028;-62
2024/01/31 01:08:46;;;;;;;19.25;10.52;;;5.00;72.20;;;;;;5016068;28;20029;-61
2024/01/31 01:11:12;;;;;;;17.77;10.45;;;5.00;72.20;;;;;;5018016;28;20045;-60
2024/01/31 01:13:38;;;;;;;17.13;11.10;;;5.00;72.20;;;;;;5018072;28;20136;-61
2024/01/31 01:16:03;;;;;;;14.70;9.70;;;5.00;72.30;;;;;;5016465;28;20504;-62
2024/01/31 01:18:29;;;;;;;16.90;10.52;;;5.00;72.40;;;;;;5013384;28;20160;-61
2024/01/31 01:20:55;;;;;;;17.05;10.38;;;5.00;72.40;;;;;;5013686;28;20025;-60
2024/01/31 01:23:20;;;;;;;14.90;9.75;;;5.00;72.40;;;;;;5014239;28;20036;-61
2024/01/31 01:25:46;;;;;;;15.68;9.80;;;5.10;72.40;;;;;;5012759;28;20034;-61
2024/01/31 01:28:12;;;;;;;19.48;10.52;;;5.10;72.40;;;;;;5011954;28;20038;-60
2024/01/31 01:30:37;;;;;;;17.45;11.35;;;5.10;72.30;;;;;;5020479;28;20045;-62
2024/01/31 01:33:03;;;;;;;16.65;10.40;;;5.10;72.30;;;;;;5013994;28;20029;-62
2024/01/31 01:35:29;;;;;;;17.88;10.32;;;5.10;72.20;;;;;;5022052;28;20647;-61
2024/01/31 01:37:55;;;;;;;18.63;11.02;;;5.10;72.10;;;;;;5013126;28;20052;-61
2024/01/31 01:40:20;;;;;;;17.42;10.52;;;5.10;72.10;;;;;;5017497;28;20053;-60
2024/01/31 01:42:46;;;;;;;19.15;10.57;;;5.10;72.10;;;;;;5009773;28;20034;-61
2024/01/31 01:45:12;;;;;;;16.92;10.88;;;5.10;72.00;;;;;;4908984;28;20038;-60
2024/01/31 01:47:40;;;;;;;19.10;10.10;;;5.10;71.90;;;;;;5015665;28;20030;-62
2024/01/31 01:50:08;;;;;;;18.15;11.02;;;5.00;71.80;;;;;;5009499;28;20052;-62
2024/01/31 01:52:34;;;;;;;18.38;10.93;;;5.00;71.80;;;;;;5010810;28;20109;-61
2024/01/31 01:55:03;;;;;;;15.32;9.63;;;5.00;72.60;;;;;;5020752;28;20112;-62
2024/01/31 01:57:31;;;;;;;16.50;10.27;;;5.00;72.00;;;;;;5011105;28;20032;-62
2024/01/31 01:59:57;;;;;;;16.13;9.98;;;5.00;72.10;;;;;;5013055;28;20030;-62
2024/01/31 02:02:24;;;;;;;15.77;9.50;;;5.00;72.10;;;;;;5010685;28;20034;-62
2024/01/31 02:04:50;;;;;;;19.23;9.93;;;5.00;72.20;;;;;;5006591;28;20041;-61
2024/01/31 02:07:24;;;;;;;14.30;9.02;;;5.00;72.20;;;;;;5011180;28;20052;-61
2024/01/31 02:09:52;;;;;;;17.33;10.02;;;5.00;72.30;;;;;;5013305;28;20029;-61
2024/01/31 02:12:17;;;;;;;17.05;10.48;;;5.00;72.30;;;;;;5015036;28;20485;-60
2024/01/31 02:14:47;;;;;;;19.27;10.25;;;5.00;72.30;;;;;;5018980;28;20085;-62
2024/01/31 02:17:14;;;;;;;15.55;10.13;;;5.00;72.40;;;;;;5005578;28;20052;-61
2024/01/31 02:19:39;;;;;;;17.23;9.85;;;5.00;72.50;;;;;;5012275;28;20064;-61
2024/01/31 02:22:06;;;;;;;16.88;9.77;;;5.00;72.60;;;;;;5018326;28;20056;-60
2024/01/31 02:24:32;;;;;;;16.23;10.73;;;5.30;72.80;;;;;;5010737;28;20029;-60
2024/01/31 02:26:58;;;;;;;15.27;10.27;;;5.00;72.60;;;;;;5032259;28;20499;-61
2024/01/31 02:29:24;;;;;;;18.02;10.95;;;5.10;72.70;;;;;;5020563;28;20558;-61
2024/01/31 02:31:49;;;;;;;13.95;10.02;;;5.10;72.70;;;;;;5015429;28;20088;-62
2024/01/31 02:34:15;;;;;;;21.85;10.68;;;5.10;72.70;;;;;;5020120;28;20045;-61
2024/01/31 02:36:41;;;;;;;15.55;9.57;;;5.10;72.90;;;;;;5016340;28;20596;-61
2024/01/31 02:39:07;;;;;;;17.42;10.38;;;5.10;72.90;;;;;;5015688;28;20081;-61
2024/01/31 02:41:32;;;;;;;13.00;8.98;;;5.10;72.90;;;;;;5019469;28;20030;-61
2024/01/31 02:43:58;;;;;;;16.17;9.18;;;5.20;73.00;;;;;;5024162;28;20051;-61
2024/01/31 02:46:25;;;;;;;13.07;8.43;;;5.20;73.10;;;;;;4911015;28;20404;-61
2024/01/31 02:48:50;;;;;;;14.93;8.68;;;5.20;73.00;;;;;;5023721;28;20514;-63
2024/01/31 02:51:16;;;;;;;15.00;8.95;;;5.20;73.10;;;;;;5018876;28;20053;-62
2024/01/31 02:53:42;;;;;;;14.88;8.65;;;5.20;73.10;;;;;;5009408;28;20043;-62
2024/01/31 02:56:08;;;;;;;17.33;9.40;;;5.30;73.20;;;;;;5017597;28;20030;-62
2024/01/31 02:58:35;;;;;;;14.25;8.93;;;5.30;73.20;;;;;;5015467;28;20021;-61
2024/01/31 03:01:04;;;;;;;15.65;9.63;;;5.30;73.20;;;;;;5012152;28;20831;-61
2024/01/31 03:03:30;;;;;;;15.20;9.07;;;5.30;73.20;;;;;;5012351;28;20057;-61
2024/01/31 03:05:55;;;;;;;18.23;10.27;;;5.40;73.30;;;;;;5017331;28;20061;-61
2024/01/31 03:08:21;;;;;;;17.00;10.27;;;5.40;73.90;;;;;;5014002;28;20055;-61
2024/01/31 03:10:47;;;;;;;16.30;10.13;;;5.40;73.20;;;;;;5020871;28;20454;-62
2024/01/31 03:13:14;;;;;;;18.65;10.77;;;5.40;73.20;;;;;;5013131;28;20022;-62
2024/01/31 03:15:39;;;;;;;21.58;11.20;;;5.50;73.20;;;;;;5008627;28;20036;-62
2024/01/31 03:18:05;;;;;;;21.38;11.38;;;5.50;73.20;;;;;;5017629;28;20817;-61
2024/01/31 03:20:33;;;;;;;17.63;11.20;;;5.50;73.30;;;;;;5019597;28;20286;-61
2024/01/31 03:22:58;;;;;;;17.90;10.70;;;5.50;73.30;;;;;;5020462;28;20065;-61
2024/01/31 03:25:24;;;;;;;17.55;10.93;;;5.60;73.40;;;;;;5024178;28;20444;-62
2024/01/31 03:27:49;;;;;;;18.33;11.25;;;5.60;73.30;;;;;;5020710;28;20029;-62
2024/01/31 03:30:15;;;;;;;19.55;11.45;;;5.60;73.40;;;;;;5012334;28;20661;-61
2024/01/31 03:32:41;;;;;;;21.35;11.07;;;5.60;73.30;;;;;;5019006;28;20030;-61
2024/01/31 03:35:07;;;;;;;20.55;11.05;;;5.70;73.30;;;;;;5018288;28;20021;-61
2024/01/31 03:37:32;;;;;;;16.02;10.57;;;5.70;73.30;;;;;;5011170;28;20045;-62
2024/01/31 03:39:58;;;;;;;16.65;10.32;;;5.70;73.20;;;;;;5019424;28;20033;-62
2024/01/31 03:42:24;;;;;;;18.52;10.98;;;5.70;73.20;;;;;;5015690;28;20045;-61
2024/01/31 03:44:50;;;;;;;17.55;10.80;;;5.70;73.10;;;;;;4926390;28;20021;-61
2024/01/31 03:47:15;;;;;;;18.10;11.18;;;5.70;73.20;;;;;;5014292;28;20022;-61
2024/01/31 03:49:41;;;;;;;18.08;10.73;;;5.70;73.20;;;;;;5016386;28;20034;-61
2024/01/31 03:52:07;;;;;;;19.48;10.45;;;5.80;73.30;;;;;;5012448;28;20037;-62
2024/01/31 03:54:33;;;;;;;15.50;10.23;;;5.80;73.30;;;;;;5013310;28;20060;-61
2024/01/31 03:56:58;;;;;;;18.50;10.43;;;5.80;73.40;;;;;;5019295;28;20030;-61
2024/01/31 03:59:24;;;;;;;15.50;9.82;;;5.80;73.50;;;;;;5023161;28;20022;-62
2024/01/31 04:01:50;;;;;;;15.85;10.07;;;5.80;73.40;;;;;;5020031;28;20503;-62
2024/01/31 04:04:16;;;;;;;16.92;10.65;;;5.80;73.40;;;;;;5017642;28;20046;-61
2024/01/31 04:06:42;;;;;;;15.40;10.07;;;5.80;73.40;;;;;;5009264;28;20148;-61
2024/01/31 04:09:07;;;;;;;15.63;10.15;;;5.90;73.50;;;;;;5018019;28;20081;-61
2024/01/31 04:11:34;;;;;;;18.25;10.63;;;5.90;73.50;;;;;;5022328;28;20537;-62
2024/01/31 04:14:03;;;;;;;18.80;11.00;;;5.90;73.50;;;;;;5020050;28;20040;-61
2024/01/31 04:16:29;;;;;;;16.75;10.50;;;5.90;73.60;;;;;;5016565;28;20564;-62
2024/01/31 04:18:55;;;;;;;21.17;10.23;;;5.90;73.50;;;;;;5013984;28;20022;-61
2024/01/31 04:21:22;;;;;;;17.15;10.98;;;5.90;73.60;;;;;;5017866;28;20528;-62
2024/01/31 04:23:48;;;;;;;14.73;9.95;;;5.90;73.50;;;;;;5011798;28;20026;-61
2024/01/31 04:26:13;;;;;;;18.48;10.18;;;5.90;73.50;;;;;;5021437;28;20025;-62
2024/01/31 04:28:39;;;;;;;19.38;10.70;;;5.90;73.50;;;;;;5019314;28;20037;-60
2024/01/31 04:31:11;;;;;;;17.02;10.50;;;6.00;73.60;;;;;;5016357;28;20132;-61
2024/01/31 04:33:36;;;;;;;15.60;9.68;;;6.00;73.60;;;;;;5012357;28;20023;-61
2024/01/31 04:36:02;;;;;;;17.60;10.45;;;6.00;73.60;;;;;;5013538;28;20108;-61
2024/01/31 04:38:28;;;;;;;17.90;10.60;;;6.00;73.70;;;;;;5018968;28;20064;-62
2024/01/31 04:40:54;;;;;;;20.00;10.52;;;6.00;73.70;;;;;;5017894;28;20387;-61
2024/01/31 04:43:19;;;;;;;18.42;9.85;;;6.00;73.70;;;;;;5013566;28;20105;-60
2024/01/31 04:45:45;;;;;;;16.45;10.32;;;6.00;73.60;;;;;;5010575;28;20104;-61
2024/01/31 04:48:11;;;;;;;15.55;9.88;;;6.00;73.70;;;;;;4959737;28;20392;-62
2024/01/31 04:50:37;;;;;;;15.35;9.80;;;6.10;73.70;;;;;;5015126;28;20088;-61
2024/01/31 04:53:03;;;;;;;17.05;10.18;;;6.10;73.70;;;;;;5014763;28;20029;-62
2024/01/31 04:55:29;;;;;;;15.23;9.23;;;6.10;73.70;;;;;;5015230;28;20531;-61
2024/01/31 04:57:54;;;;;;;15.85;10.55;;;6.10;73.70;;;;;;5012571;28;20036;-62
2024/01/31 05:00:23;;;;;;;13.23;9.18;;;6.10;73.70;;;;;;5013904;28;20042;-61
2024/01/31 05:02:50;;;;;;;13.90;9.27;;;6.10;73.70;;;;;;5018169;28;20029;-61
2024/01/31 05:05:15;;;;;;;16.45;10.18;;;6.10;73.80;;;;;;5015023;28;20548;-62
2024/01/31 05:07:41;;;;;;;17.30;10.13;;;6.10;73.80;;;;;;5009373;28;20037;-62
2024/01/31 05:10:08;;;;;;;16.58;10.48;;;6.10;73.80;;;;;;5015200;28;20037;-63
2024/01/31 05:12:34;;;;;;;13.50;8.98;;;6.20;73.90;;;;;;5017662;28;20499;-61
2024/01/31 05:15:00;;;;;;;20.90;10.63;;;6.10;73.70;;;;;;5013267;28;20034;-62
2024/01/31 05:17:26;;;;;;;21.55;11.13;;;6.20;73.80;;;;;;5019627;28;20385;-63
2024/01/31 05:19:52;;;;;;;18.60;11.05;;;6.20;73.80;;;;;;5007724;28;20024;-60
2024/01/31 05:22:18;;;;;;;19.08;11.70;;;6.20;73.90;;;;;;5014263;28;20030;-61
2024/01/31 05:24:44;;;;;;;19.98;11.30;;;6.20;73.90;;;;;;5023600;28;20071;-61
2024/01/31 05:27:10;;;;;;;18.33;11.05;;;6.20;74.50;;;;;;5018335;28;20111;-61
2024/01/31 05:29:36;;;;;;;16.58;11.05;;;6.20;73.90;;;;;;5013265;28;20599;-61
2024/01/31 05:32:03;;;;;;;17.40;11.23;;;6.30;73.90;;;;;;5009837;28;20038;-61
2024/01/31 05:34:29;;;;;;;17.95;11.20;;;6.30;73.90;;;;;;5006616;28;20029;-60
2024/01/31 05:36:55;;;;;;;21.05;13.30;;;6.30;73.80;;;;;;5015694;28;20109;-61
2024/01/31 05:39:20;;;;;;;35.70;19.65;;;6.30;73.80;;;;;;5029560;28;20688;-61
2024/01/31 05:41:46;;;;;;;22.30;14.23;;;6.30;73.80;;;;;;5021037;28;20044;-61
2024/01/31 05:44:12;;;;;;;20.17;13.05;;;6.30;73.80;;;;;;5009378;28;20033;-62
2024/01/31 05:46:38;;;;;;;21.88;13.13;;;6.30;73.80;;;;;;5011247;28;20116;-61
2024/01/31 05:49:04;;;;;;;20.60;13.65;;;6.40;73.80;;;;;;5014040;28;20071;-63
2024/01/31 05:51:30;;;;;;;24.13;14.45;;;6.40;73.80;;;;;;5005696;28;20038;-60
2024/01/31 05:53:56;;;;;;;23.00;13.90;;;6.40;73.90;;;;;;5020388;28;20041;-62
2024/01/31 05:56:22;;;;;;;25.60;13.77;;;6.40;73.90;;;;;;5010750;28;20542;-61
2024/01/31 05:58:48;;;;;;;23.02;13.10;;;6.40;73.90;;;;;;5017272;28;20381;-62
2024/01/31 06:01:15;;;;;;;20.83;13.05;;;6.40;73.90;;;;;;5014789;28;20480;-61
2024/01/31 06:03:40;;;;;;;26.77;16.63;;;6.40;73.90;;;;;;5014402;28;20038;-61
2024/01/31 06:06:06;;;;;;;30.98;19.08;;;6.50;74.00;;;;;;5019444;28;20801;-61
2024/01/31 06:08:32;;;;;;;29.65;17.92;;;6.50;73.90;;;;;;5014011;28;20064;-62
2024/01/31 06:11:03;;;;;;;30.95;17.02;;;6.50;73.90;;;;;;5021870;28;20029;-61
2024/01/31 06:13:29;;;;;;;31.35;17.35;;;6.50;73.90;;;;;;5017439;28;20038;-61
2024/01/31 06:15:55;;;;;;;30.25;17.73;;;6.50;73.90;;;;;;5018173;28;20388;-61
2024/01/31 06:18:22;;;;;;;28.13;16.83;;;6.50;73.80;;;;;;5017246;28;20030;-62
2024/01/31 06:20:48;;;;;;;31.25;18.33;;;6.50;73.80;;;;;;5020841;28;20037;-62
2024/01/31 06:23:14;;;;;;;30.40;16.90;;;6.50;73.80;;;;;;5015037;28;20018;-62
2024/01/31 06:25:40;;;;;;;34.00;18.70;;;6.60;73.90;;;;;;5018004;28;20056;-62
2024/01/31 06:28:06;;;;;;;30.60;17.52;;;6.60;73.90;;;;;;5016554;28;20119;-63
2024/01/31 06:30:40;;;;;;;33.25;17.13;;;6.60;73.80;;;;;;5014963;28;20053;-62
2024/01/31 06:33:06;;;;;;;21.38;11.85;;;6.60;73.70;;;;;;5017739;28;20038;-61
2024/01/31 06:35:32;;;;;;;25.08;15.52;;;6.60;73.70;;;;;;5017827;28;20037;-62
2024/01/31 06:37:57;;;;;;;29.52;16.58;;;6.70;73.70;;;;;;5018435;28;20026;-62
2024/01/31 06:40:24;;;;;;;26.73;15.77;;;6.70;73.80;;;;;;5018916;28;20022;-62
2024/01/31 06:42:49;;;;;;;25.75;14.50;;;6.70;73.80;;;;;;5019670;28;20037;-62
2024/01/31 06:45:17;;;;;;;19.95;12.80;;;6.70;73.70;;;;;;4934592;28;20034;-60
2024/01/31 06:47:42;;;;;;;22.42;12.40;;;6.70;73.80;;;;;;5015841;28;20391;-61
2024/01/31 06:50:08;;;;;;;23.33;12.98;;;6.70;73.80;;;;;;5026728;28;20029;-61
2024/01/31 06:52:34;;;;;;;21.20;12.30;;;6.70;73.80;;;;;;5025005;28;20029;-61
2024/01/31 06:55:01;;;;;;;26.58;13.88;;;6.70;73.80;;;;;;5008776;28;20030;-62
2024/01/31 06:57:27;;;;;;;22.73;13.13;;;6.80;73.90;;;;;;5011857;28;20048;-60
2024/01/31 06:59:53;;;;;;;28.30;14.00;;;6.80;73.90;;;;;;5011639;28;20038;-61
2024/01/31 07:02:19;;;;;;;25.55;13.63;;;6.80;73.80;;;;;;5015083;28;20447;-61
2024/01/31 07:04:44;;;;;;;25.27;13.82;;;6.80;73.80;;;;;;5020931;28;20031;-64
2024/01/31 07:07:10;;;;;;;24.67;13.00;;;6.80;73.80;;;;;;5017557;28;20084;-63
2024/01/31 07:09:36;;;;;;;28.25;12.60;;;6.80;73.70;;;;;;5013811;28;20072;-63
2024/01/31 07:12:01;;;;;;;28.55;13.13;;;6.80;73.80;;;;;;5019277;28;20095;-64
2024/01/31 07:14:27;;;;;;;34.63;13.98;;;6.80;73.80;;;;;;5015715;28;20033;-62
2024/01/31 07:16:52;;;;;;;36.92;14.50;;;6.80;73.80;;;;;;5010633;28;20033;-62
2024/01/31 07:19:18;;;;;;;48.53;16.15;;;6.90;73.80;;;;;;5018822;28;20121;-63
2024/01/31 07:21:44;;;;;;;48.25;17.30;;;6.90;73.80;;;;;;5017257;28;20072;-63
2024/01/31 07:24:09;;;;;;;51.33;17.35;;;6.90;73.80;;;;;;5014091;28;20048;-64
2024/01/31 07:26:35;;;;;;;41.40;15.77;;;6.90;73.60;;;;;;5020720;28;20068;-62
2024/01/31 07:29:01;;;;;;;40.45;16.40;;;7.00;73.70;;;;;;5018237;28;20046;-64
2024/01/31 07:31:27;;;;;;;45.38;16.15;;;7.00;73.60;;;;;;5011065;28;20048;-64
2024/01/31 07:33:53;;;;;;;38.13;16.90;;;7.00;73.70;;;;;;5022550;28;20044;-64
2024/01/31 07:36:19;;;;;;;48.65;16.98;;;7.00;73.70;;;;;;5015327;28;20100;-64
2024/01/31 07:38:49;;;;;;;40.25;16.27;;;7.10;73.80;;;;;;5014108;28;20022;-65
2024/01/31 07:41:14;;;;;;;44.78;15.98;;;7.10;73.70;;;;;;5018041;28;20027;-63
2024/01/31 07:43:41;;;;;;;36.58;14.80;;;7.10;73.60;;;;;;5019557;28;20094;-63
2024/01/31 07:46:06;;;;;;;29.70;14.05;;;7.10;73.60;;;;;;4964944;28;20029;-63
2024/01/31 07:48:32;;;;;;;31.67;14.23;;;7.20;73.70;;;;;;5010398;28;20373;-62
2024/01/31 07:51:01;;;;;;;27.75;14.52;;;7.20;73.70;;;;;;5020510;28;20061;-63
2024/01/31 07:53:27;;;;;;;34.20;15.85;;;7.20;73.60;;;;;;5017486;28;20068;-63
2024/01/31 07:55:53;;;;;;;35.00;17.52;;;7.30;73.60;;;;;;5016627;28;20034;-63
2024/01/31 07:58:18;;;;;;;36.80;16.00;;;7.30;73.60;;;;;;5019175;28;20079;-63
2024/01/31 08:00:44;;;;;;;30.75;15.07;;;7.30;73.60;;;;;;5013742;28;20056;-64
2024/01/31 08:03:10;;;;;;;27.80;13.50;;;7.40;73.60;;;;;;5020803;28;20030;-63
2024/01/31 08:05:35;;;;;;;25.42;12.43;;;7.40;73.50;;;;;;5009612;28;20022;-63
2024/01/31 08:08:01;;;;;;;21.42;12.82;;;7.40;73.50;;;;;;5007127;28;20179;-62
2024/01/31 08:10:27;;;;;;;27.55;13.00;;;7.40;73.50;;;;;;5012205;28;20038;-63
2024/01/31 08:12:52;;;;;;;25.90;13.10;;;7.40;73.50;;;;;;5013777;28;20028;-63
2024/01/31 08:15:18;;;;;;;25.00;13.45;;;7.50;74.20;;;;;;5018466;28;20059;-62
2024/01/31 08:17:44;;;;;;;22.58;13.15;;;7.50;73.60;;;;;;5007036;28;20030;-64
2024/01/31 08:20:10;;;;;;;24.92;13.70;;;7.50;73.50;;;;;;5011621;28;20045;-63
2024/01/31 08:22:36;;;;;;;23.70;13.48;;;7.50;73.50;;;;;;5015486;28;20029;-64
2024/01/31 08:25:04;;;;;;;26.90;14.15;;;7.60;73.60;;;;;;5012395;28;20519;-64
2024/01/31 08:27:31;;;;;;;38.67;18.33;;;7.60;73.60;;;;;;5009587;28;20120;-63
2024/01/31 08:29:56;;;;;;;26.95;15.80;;;7.60;73.50;;;;;;5016575;28;20045;-63
2024/01/31 08:32:22;;;;;;;24.15;14.57;;;7.60;73.40;;;;;;5015099;28;20030;-63
2024/01/31 08:34:49;;;;;;;25.70;15.63;;;7.70;73.40;;;;;;5015667;28;20061;-63
2024/01/31 08:37:14;;;;;;;28.35;15.63;;;7.70;73.40;;;;;;5014048;28;20021;-63
2024/01/31 08:39:41;;;;;;;27.42;14.63;;;7.70;73.50;;;;;;5012260;28;20556;-63
2024/01/31 08:42:08;;;;;;;23.35;14.38;;;7.70;73.50;;;;;;5010789;28;20036;-63
2024/01/31 08:44:38;;;;;;;24.58;14.70;;;7.70;73.40;;;;;;4970832;28;20041;-63
2024/01/31 08:47:05;;;;;;;40.63;20.05;;;7.80;73.50;;;;;;5003567;28;20068;-63
2024/01/31 08:49:30;;;;;;;34.17;18.98;;;7.80;74.10;;;;;;5016564;28;20075;-62
2024/01/31 08:51:56;;;;;;;27.35;15.45;;;7.80;73.30;;;;;;5016610;28;20038;-64
2024/01/31 08:54:21;;;;;;;24.17;15.18;;;7.80;73.30;;;;;;5011896;28;20021;-64
2024/01/31 08:56:47;;;;;;;22.42;14.25;;;7.80;73.90;;;;;;5008883;28;20125;-64
2024/01/31 08:59:13;;;;;;;24.73;14.50;;;7.90;73.20;;;;;;5012054;28;20072;-63
2024/01/31 09:01:48;;;;;;;25.85;15.18;;;7.90;73.20;;;;;;5009062;28;20405;-63
2024/01/31 09:04:14;;;;;;;26.95;15.10;;;7.90;73.20;;;;;;5006652;28;20024;-63
2024/01/31 09:06:42;;;;;;;32.95;15.45;;;8.00;73.20;;;;;;5015009;28;20022;-63
2024/01/31 09:09:09;;;;;;;27.58;15.32;;;8.00;73.30;;;;;;5011606;28;20111;-62
2024/01/31 09:11:34;;;;;;;28.85;15.45;;;8.00;73.30;;;;;;5007413;28;20060;-62
2024/01/31 09:14:00;;;;;;;28.02;15.00;;;8.00;73.30;;;;;;5007596;28;20468;-64
2024/01/31 09:16:25;;;;;;;26.63;15.15;;;8.00;73.30;;;;;;5009700;28;20477;-63
2024/01/31 09:18:51;;;;;;;27.70;16.38;;;8.10;73.40;;;;;;5010459;28;20207;-61
2024/01/31 09:21:27;;;;;;;27.10;14.95;;;8.10;73.40;;;;;;5004337;28;20092;-64
2024/01/31 09:23:56;;;;;;;27.15;17.40;;;8.10;73.40;;;;;;5015708;28;20034;-63
2024/01/31 09:26:22;;;;;;;26.77;15.20;;;8.20;73.50;;;;;;5009663;28;20049;-64
2024/01/31 09:28:49;;;;;;;26.63;15.68;;;8.20;73.50;;;;;;5006977;28;20034;-62
2024/01/31 09:31:25;;;;;;;26.63;14.95;;;8.30;73.50;;;;;;5001368;28;20418;-63
2024/01/31 09:33:53;;;;;;;23.63;14.68;;;8.30;73.50;;;;;;5009870;28;20040;-62
2024/01/31 09:36:18;;;;;;;24.23;13.25;;;8.40;73.40;;;;;;5012935;28;20053;-62
2024/01/31 09:38:47;;;;;;;24.80;13.80;;;8.40;73.40;;;;;;5014826;28;20053;-63
2024/01/31 09:41:12;;;;;;;26.02;15.20;;;8.50;73.40;;;;;;5006251;28;20022;-64
2024/01/31 09:43:38;;;;;;;25.77;14.75;;;8.50;73.30;;;;;;5015917;28;20045;-62
2024/01/31 09:46:06;;;;;;;24.45;14.50;;;8.60;73.20;;;;;;4918747;28;20037;-64
2024/01/31 09:48:33;;;;;;;23.23;13.93;;;8.70;73.20;;;;;;5014744;28;20128;-63
2024/01/31 09:51:01;;;;;;;28.70;15.18;;;8.70;73.20;;;;;;5014155;28;20508;-63
2024/01/31 09:53:27;;;;;;;23.67;13.32;;;8.80;73.30;;;;;;5017463;28;20075;-63
2024/01/31 09:55:56;;;;;;;27.45;15.15;;;8.90;74.00;;;;;;5013541;28;20034;-64
2024/01/31 09:58:22;;;;;;;29.70;15.40;;;9.00;73.10;;;;;;5025591;28;20067;-65
2024/01/31 10:00:51;;;;;;;27.45;14.98;;;9.00;72.80;;;;;;5013951;28;20053;-64
2024/01/31 10:03:16;;;;;;;26.38;15.30;;;9.10;72.50;;;;;;5009238;28;20065;-63
2024/01/31 10:05:42;;;;;;;26.98;14.27;;;9.20;72.40;;;;;;5010891;28;20069;-63
2024/01/31 10:08:08;;;;;;;25.70;15.55;;;9.20;72.20;;;;;;5008344;28;20026;-63
2024/01/31 10:10:34;;;;;;;24.98;14.80;;;9.30;72.20;;;;;;5009240;28;20042;-63
2024/01/31 10:12:59;;;;;;;25.02;14.90;;;9.30;72.20;;;;;;5010486;28;20026;-63
2024/01/31 10:15:25;;;;;;;24.73;14.63;;;9.40;72.10;;;;;;5009207;28;20037;-62
2024/01/31 10:17:53;;;;;;;23.17;14.25;;;9.40;72.00;;;;;;5011917;28;20037;-64
2024/01/31 10:20:19;;;;;;;24.20;14.30;;;9.50;71.90;;;;;;5012445;28;20025;-62
2024/01/31 10:22:45;;;;;;;23.05;13.50;;;9.50;71.80;;;;;;5008213;28;21214;-63
2024/01/31 10:25:16;;;;;;;21.25;12.98;;;9.60;71.60;;;;;;5010421;28;20041;-63
2024/01/31 10:27:51;;;;;;;20.15;12.65;;;9.70;71.50;;;;;;5013844;28;20038;-63
2024/01/31 10:30:17;;;;;;;21.00;13.80;;;9.70;71.40;;;;;;5006017;28;20093;-64
2024/01/31 10:32:44;;;;;;;21.17;13.35;;;9.70;71.40;;;;;;5008118;28;20084;-63
2024/01/31 10:35:11;;;;;;;23.27;13.25;;;9.80;71.40;;;;;;5008028;28;20021;-63
2024/01/31 10:37:37;;;;;;;22.80;13.10;;;9.80;71.30;;;;;;5012137;28;20464;-62
2024/01/31 10:40:06;;;;;;;18.35;12.32;;;9.90;71.20;;;;;;5008927;28;20049;-63
2024/01/31 10:42:31;;;;;;;17.70;10.52;;;9.90;71.10;;;;;;5014317;28;20052;-61
2024/01/31 10:45:08;;;;;;;14.23;9.27;;;10.00;71.10;;;;;;5008337;28;20116;-62
2024/01/31 10:47:35;;;;;;;12.40;9.13;;;10.10;70.90;;;;;;4997400;28;20037;-63
2024/01/31 10:50:01;;;;;;;14.88;9.55;;;10.10;70.90;;;;;;5001972;28;20041;-63
2024/01/31 10:52:32;;;;;;;14.43;9.82;;;10.20;71.50;;;;;;5018620;28;20137;-64
2024/01/31 10:55:00;;;;;;;13.27;9.32;;;10.20;70.80;;;;;;5005342;28;20037;-64
2024/01/31 10:57:27;;;;;;;16.40;9.25;;;10.30;70.80;;;;;;5019608;28;20032;-63
2024/01/31 10:59:56;;;;;;;15.40;9.57;;;10.30;70.70;;;;;;5020364;28;20033;-63
2024/01/31 11:02:31;;;;;;;16.98;10.45;;;10.40;70.70;;;;;;5022862;28;20358;-64
2024/01/31 11:05:00;;;;;;;13.50;9.20;;;10.40;70.70;;;;;;5018200;28;20024;-64
2024/01/31 11:07:26;;;;;;;19.40;9.40;;;10.50;70.60;;;;;;5014428;28;20384;-63
2024/01/31 11:09:52;;;;;;;13.75;9.35;;;10.60;70.70;;;;;;5014638;28;20108;-63
2024/01/31 11:12:18;;;;;;;14.18;9.07;;;10.60;70.60;;;;;;5015203;28;20087;-63
2024/01/31 11:14:45;;;;;;;13.63;8.13;;;10.70;70.50;;;;;;5013861;28;20049;-63
2024/01/31 11:17:17;;;;;;;17.55;9.25;;;10.70;70.40;;;;;;5021010;28;20032;-64
2024/01/31 11:19:59;;;;;;;14.90;9.70;;;10.80;70.40;;;;;;5007542;28;20026;-63
2024/01/31 11:22:25;;;;;;;18.80;9.88;;;10.80;70.00;;;;;;5005134;28;20059;-63
2024/01/31 11:24:55;;;;;;;16.92;10.38;;;10.90;70.10;;;;;;5012077;28;20090;-62
2024/01/31 11:27:21;;;;;;;14.27;9.75;;;11.00;70.00;;;;;;5006832;28;20014;-64
2024/01/31 11:29:50;;;;;;;14.52;9.45;;;11.00;69.90;;;;;;5016051;28;20111;-64
2024/01/31 11:32:17;;;;;;;17.23;9.95;;;11.00;69.70;;;;;;5021329;28;20554;-63
2024/01/31 11:34:42;;;;;;;14.65;9.15;;;11.10;69.70;;;;;;5015964;28;20461;-63
2024/01/31 11:37:11;;;;;;;12.68;8.75;;;11.10;69.60;;;;;;5011032;28;20038;-62
2024/01/31 11:39:37;;;;;;;15.55;9.32;;;11.10;69.60;;;;;;5007950;28;20361;-62
2024/01/31 11:42:04;;;;;;;12.98;8.55;;;11.20;69.50;;;;;;5014532;28;20025;-63
2024/01/31 11:44:40;;;;;;;16.23;10.43;;;11.20;69.60;;;;;;5012983;28;20030;-62
2024/01/31 11:47:07;;;;;;;14.40;9.20;;;11.30;69.50;;;;;;5018192;28;20021;-64
2024/01/31 11:49:32;;;;;;;15.13;9.23;;;11.30;69.50;;;;;;5014751;28;20038;-63
2024/01/31 11:51:58;;;;;;;18.45;9.13;;;11.40;70.10;;;;;;5013452;28;20037;-64
2024/01/31 11:54:23;;;;;;;16.10;9.48;;;11.50;69.20;;;;;;5018467;28;20022;-63
2024/01/31 11:56:50;;;;;;;13.90;9.07;;;11.50;69.20;;;;;;5014354;28;20457;-62
2024/01/31 11:59:16;;;;;;;13.38;8.73;;;11.60;69.10;;;;;;5017378;28;20104;-62
2024/01/31 12:01:42;;;;;;;13.98;9.25;;;11.70;69.10;;;;;;5009777;28;20430;-63
2024/01/31 12:04:08;;;;;;;13.85;8.75;;;11.80;69.00;;;;;;5012801;28;20057;-63
2024/01/31 12:06:33;;;;;;;14.63;9.20;;;11.80;68.60;;;;;;5006931;28;20053;-63
2024/01/31 12:09:00;;;;;;;17.08;8.88;;;11.90;68.60;;;;;;5011391;28;20034;-64
2024/01/31 12:11:25;;;;;;;16.25;9.13;;;12.00;68.50;;;;;;5015104;28;20044;-64
2024/01/31 12:13:51;;;;;;;16.25;9.55;;;12.00;68.30;;;;;;5019500;28;20037;-63
2024/01/31 12:16:17;;;;;;;17.73;9.15;;;12.00;68.20;;;;;;5012659;28;20029;-63
2024/01/31 12:18:42;;;;;;;14.82;8.98;;;12.10;68.10;;;;;;5012978;28;20065;-63
2024/01/31 12:21:11;;;;;;;14.68;8.95;;;12.10;68.10;;;;;;5008967;28;20039;-63
2024/01/31 12:23:37;;;;;;;13.45;8.85;;;12.10;68.00;;;;;;5008899;28;20117;-63
2024/01/31 12:26:03;;;;;;;12.13;8.40;;;12.20;68.00;;;;;;5021251;28;20120;-64
2024/01/31 12:28:29;;;;;;;14.80;8.60;;;12.20;67.90;;;;;;5013223;28;20064;-63
2024/01/31 12:30:56;;;;;;;15.80;8.38;;;12.30;67.80;;;;;;5009931;28;20045;-62
2024/01/31 12:33:22;;;;;;;15.05;8.57;;;12.30;67.80;;;;;;5005930;28;20025;-62